createdAt,value
2023-01-19T00:00:17.195Z,10.10
2023-01-19T00:01:16.439Z,9.100
2023-01-19T00:02:16.226Z,10.10
2023-01-19T00:03:16.474Z,9.600
2023-01-19T00:04:16.771Z,8.600
2023-01-19T00:05:16.764Z,10.89
2023-01-19T00:06:16.503Z,9.199
2023-01-19T00:07:16.473Z,10
2023-01-19T00:08:16.356Z,9.800
2023-01-19T00:09:16.204Z,7.699
2023-01-19T00:10:16.931Z,10.80
2023-01-19T00:11:16.695Z,9.199
2023-01-19T00:12:16.209Z,9.399
2023-01-19T00:13:16.044Z,8.100
2023-01-19T00:14:16.612Z,9
2023-01-19T00:15:16.546Z,9.800
2023-01-19T00:16:16.665Z,10.69
2023-01-19T00:17:16.555Z,8.699
2023-01-19T00:19:16.463Z,9.100
2023-01-19T00:20:16.479Z,8.199
2023-01-19T00:21:16.526Z,8.800
2023-01-19T00:22:16.301Z,8.5
2023-01-19T00:23:16.235Z,9.399
2023-01-19T00:24:16.665Z,10
2023-01-19T00:25:16.348Z,9.199
2023-01-19T00:26:16.388Z,8.800
2023-01-19T00:27:16.437Z,9.300
2023-01-19T00:28:16.399Z,9
2023-01-19T00:29:16.264Z,9.399
2023-01-19T00:30:16.499Z,8.800
2023-01-19T00:31:16.169Z,9.600
2023-01-19T00:32:16.046Z,8.100
2023-01-19T00:33:16.595Z,9.399
2023-01-19T00:34:16.247Z,8.399
2023-01-19T00:35:16.208Z,7.900
2023-01-19T00:36:16.333Z,9
2023-01-19T00:37:16.258Z,8.399
2023-01-19T00:39:16.395Z,8.600
2023-01-19T00:40:16.718Z,8.100
2023-01-19T00:41:16.137Z,6.800
2023-01-19T00:42:16.731Z,8.399
2023-01-19T00:43:16.252Z,6.400
2023-01-19T00:44:16.533Z,7
2023-01-19T00:45:16.746Z,6.5
2023-01-19T00:46:16.412Z,7.099
2023-01-19T00:47:16.218Z,7.199
2023-01-19T00:48:16.006Z,6.900
2023-01-19T00:49:16.146Z,5.5
2023-01-19T00:50:16.954Z,7.5
2023-01-19T00:51:16.324Z,7.199
2023-01-19T00:52:15.955Z,7
2023-01-19T00:53:16.530Z,6.5
2023-01-19T00:54:16.153Z,6.699
2023-01-19T00:55:16.455Z,5.599
2023-01-19T00:56:16.109Z,6.400
2023-01-19T00:57:16.290Z,5.099
2023-01-19T00:58:16.001Z,6.5
2023-01-19T00:59:16.614Z,5.699
2023-01-19T01:00:16.883Z,4.800
2023-01-19T01:01:18.279Z,5.900
2023-01-19T01:02:16.404Z,5.400
2023-01-19T01:03:16.559Z,4.800
2023-01-19T01:04:16.241Z,4.699
2023-01-19T01:05:16.256Z,5.599
2023-01-19T01:06:16.326Z,5.300
2023-01-19T01:07:16.244Z,4.300
2023-01-19T01:08:16.011Z,4.900
2023-01-19T01:09:16.684Z,5.199
2023-01-19T01:10:16.345Z,5.800
2023-01-19T01:11:15.892Z,5
2023-01-19T01:12:16.317Z,4.599
2023-01-19T01:13:21.218Z,4.400
2023-01-19T01:14:16.116Z,3.599
2023-01-19T01:15:16.310Z,4.5
2023-01-19T01:16:16.497Z,3.700
2023-01-19T01:17:16.037Z,4
2023-01-19T01:18:16.556Z,4.699
2023-01-19T01:19:16.608Z,4.400
2023-01-19T01:20:16.227Z,3.700
2023-01-19T01:21:16.021Z,5
2023-01-19T01:22:16.340Z,4.099
2023-01-19T01:24:16.378Z,4.800
2023-01-19T01:25:16.262Z,4.699
2023-01-19T01:26:16.749Z,3.700
2023-01-19T01:27:16.465Z,4.199
2023-01-19T01:28:16.175Z,4.900
2023-01-19T01:29:16.420Z,5
2023-01-19T01:30:16.561Z,4.5
2023-01-19T01:31:16.594Z,4.099
2023-01-19T01:32:16.751Z,4.300
2023-01-19T01:33:39.791Z,5.300
2023-01-19T01:34:16.517Z,5.699
2023-01-19T01:35:16.503Z,5.099
2023-01-19T01:36:16.575Z,4.099
2023-01-19T01:37:16.472Z,4.400
2023-01-19T01:38:16.692Z,5.300
2023-01-19T01:39:17.125Z,4.5
2023-01-19T01:40:16.719Z,4.900
2023-01-19T01:41:16.384Z,4.400
2023-01-19T01:42:16.255Z,4
2023-01-19T01:43:16.437Z,5.599
2023-01-19T01:44:16.134Z,4.699
2023-01-19T01:45:16.787Z,5
2023-01-19T01:47:16.459Z,4.599
2023-01-19T01:48:15.970Z,4.099
2023-01-19T01:49:16.578Z,5.099
2023-01-19T01:51:15.862Z,4.900
2023-01-19T01:53:16.437Z,4.599
2023-01-19T01:54:16.002Z,4.300
2023-01-19T01:55:16.621Z,3.700
2023-01-19T01:56:15.851Z,5.199
2023-01-19T01:57:16.260Z,4.300
2023-01-19T01:59:15.962Z,4.099
2023-01-19T02:00:16.680Z,4.699
2023-01-19T02:01:16.304Z,4.5
2023-01-19T02:02:15.969Z,4.199
2023-01-19T02:03:16.536Z,4.800
2023-01-19T02:04:16.157Z,4
2023-01-19T02:05:16.204Z,5.199
2023-01-19T02:06:15.967Z,5.5
2023-01-19T02:07:16.433Z,4.400
2023-01-19T02:08:15.785Z,4.5
2023-01-19T02:09:16.456Z,4.699
2023-01-19T02:10:15.952Z,4.400
2023-01-19T02:11:16.381Z,5.300
2023-01-19T02:12:15.959Z,4.800
2023-01-19T02:13:16.683Z,4.599
2023-01-19T02:14:16.424Z,5
2023-01-19T02:15:16.461Z,4.099
2023-01-19T02:16:16.133Z,4.699
2023-01-19T02:17:15.920Z,5
2023-01-19T02:18:16.250Z,5.400
2023-01-19T02:19:15.996Z,5.300
2023-01-19T02:20:16.512Z,4.800
2023-01-19T02:21:16.099Z,7.400
2023-01-19T02:22:16.018Z,5.300
2023-01-19T02:23:16.348Z,5.800
2023-01-19T02:24:15.967Z,4.5
2023-01-19T02:25:16.647Z,4.300
2023-01-19T02:26:16.366Z,4.900
2023-01-19T02:27:15.872Z,5.699
2023-01-19T02:28:16.493Z,5.099
2023-01-19T02:29:16.196Z,4.699
2023-01-19T02:30:16.471Z,5.800
2023-01-19T02:31:16.008Z,5.199
2023-01-19T02:33:15.951Z,4.5
2023-01-19T02:34:16.256Z,5.199
2023-01-19T02:35:16.657Z,4.699
2023-01-19T02:37:16.027Z,5
2023-01-19T02:38:16.693Z,5.400
2023-01-19T02:39:16.463Z,5.099
2023-01-19T02:40:16.177Z,6.300
2023-01-19T02:41:16.087Z,5.699
2023-01-19T02:42:16.785Z,5.300
2023-01-19T02:43:16.131Z,5.800
2023-01-19T02:44:16.438Z,5.599
2023-01-19T02:45:16.369Z,5.400
2023-01-19T02:46:16.119Z,5.5
2023-01-19T02:47:15.918Z,6.900
2023-01-19T02:48:16.464Z,8.899
2023-01-19T02:49:16.148Z,6.400
2023-01-19T02:50:16.867Z,5.5
2023-01-19T02:51:16.394Z,6.199
2023-01-19T02:52:16.109Z,5.599
2023-01-19T02:53:16.220Z,5
2023-01-19T02:54:16.329Z,5.300
2023-01-19T02:55:16.137Z,7.300
2023-01-19T02:56:16.232Z,6.300
2023-01-19T02:57:16.335Z,6.099
2023-01-19T02:58:16.208Z,6
2023-01-19T02:59:16.033Z,6.900
2023-01-19T03:00:16.609Z,6.199
2023-01-19T03:01:16.701Z,5.599
2023-01-19T03:02:16.410Z,6.099
2023-01-19T03:03:16.412Z,6.699
2023-01-19T03:04:16.192Z,6
2023-01-19T03:05:15.998Z,6.599
2023-01-19T03:06:16.377Z,6.800
2023-01-19T03:07:15.975Z,6.5
2023-01-19T03:08:16.335Z,5.900
2023-01-19T03:09:15.954Z,6.300
2023-01-19T03:10:16.467Z,7.5
2023-01-19T03:11:16.254Z,5.400
2023-01-19T03:13:16.184Z,5.599
2023-01-19T03:14:16.552Z,5.5
2023-01-19T03:15:16.510Z,6.400
2023-01-19T03:16:16.320Z,5.300
2023-01-19T03:17:16.035Z,5.599
2023-01-19T03:18:16.130Z,6
2023-01-19T03:19:16.460Z,5.400
2023-01-19T03:20:16.347Z,6.099
2023-01-19T03:21:16.084Z,5.300
2023-01-19T03:22:16.445Z,5.900
2023-01-19T03:23:16.068Z,6.099
2023-01-19T03:24:16.452Z,5.099
2023-01-19T03:25:16.383Z,5.800
2023-01-19T03:26:16.141Z,5.5
2023-01-19T03:27:16.710Z,5.300
2023-01-19T03:28:16.049Z,5.699
2023-01-19T03:29:16.351Z,7.400
2023-01-19T03:30:16.276Z,5.400
2023-01-19T03:31:16.199Z,6.099
2023-01-19T03:32:16.429Z,5.199
2023-01-19T03:33:16.606Z,7.199
2023-01-19T03:34:16.574Z,6.900
2023-01-19T03:35:16.213Z,5.199
2023-01-19T03:36:16.609Z,6.099
2023-01-19T03:38:16.215Z,6.699
2023-01-19T03:39:16.158Z,5.099
2023-01-19T03:40:16.833Z,6.099
2023-01-19T03:41:16.644Z,5.599
2023-01-19T03:42:16.400Z,5.099
2023-01-19T03:43:16.531Z,4.900
2023-01-19T03:44:15.956Z,5.599
2023-01-19T03:45:16.302Z,5
2023-01-19T03:46:15.974Z,5.199
2023-01-19T03:47:16.097Z,4.800
2023-01-19T03:48:16.629Z,5.699
2023-01-19T03:49:16.471Z,5.400
2023-01-19T03:50:16.290Z,6.099
2023-01-19T03:51:16.257Z,5.400
2023-01-19T03:52:16.306Z,5.5
2023-01-19T03:53:16.552Z,4.099
2023-01-19T03:54:16.491Z,5.699
2023-01-19T03:55:16.273Z,5.099
2023-01-19T03:56:16.568Z,4.900
2023-01-19T03:57:16.456Z,6.199
2023-01-19T03:58:16.008Z,5.300
2023-01-19T03:59:16.090Z,5.099
2023-01-19T04:00:17.242Z,5.400
2023-01-19T04:01:16.495Z,5.199
2023-01-19T04:02:16.616Z,5.599
2023-01-19T04:03:16.381Z,5.400
2023-01-19T04:04:16.447Z,5.300
2023-01-19T04:05:16.601Z,5.400
2023-01-19T04:06:16.488Z,6.400
2023-01-19T04:08:16.416Z,5.400
2023-01-19T04:09:18.571Z,5.599
2023-01-19T04:10:16.639Z,6.300
2023-01-19T04:11:17.058Z,6.199
2023-01-19T04:12:17.022Z,5.300
2023-01-19T04:13:16.555Z,5
2023-01-19T04:14:17.030Z,6.199
2023-01-19T04:15:16.774Z,5.900
2023-01-19T04:16:16.920Z,5.300
2023-01-19T04:18:17.082Z,5.800
2023-01-19T04:19:16.397Z,5.400
2023-01-19T04:20:16.612Z,5.199
2023-01-19T04:21:17.066Z,5.599
2023-01-19T04:22:17.131Z,6.199
2023-01-19T04:23:16.868Z,5.5
2023-01-19T04:24:17.048Z,6.099
2023-01-19T04:25:16.503Z,5.800
2023-01-19T04:26:16.888Z,6
2023-01-19T04:27:17.222Z,5.599
2023-01-19T04:29:16.751Z,5.099
2023-01-19T04:30:17.070Z,6.800
2023-01-19T04:31:16.301Z,6.300
2023-01-19T04:32:16.538Z,7
2023-01-19T04:33:16.327Z,5.800
2023-01-19T04:34:16.289Z,6
2023-01-19T04:36:16.105Z,6.900
2023-01-19T04:37:16.364Z,5.300
2023-01-19T04:38:16.148Z,5.699
2023-01-19T04:39:16.085Z,5.5
2023-01-19T04:40:16.853Z,6.099
2023-01-19T04:41:16.408Z,5.099
2023-01-19T04:42:16.186Z,5.5
2023-01-19T04:43:16.229Z,6
2023-01-19T04:44:16.164Z,5.099
2023-01-19T04:45:16.860Z,6.099
2023-01-19T04:46:16.534Z,5.400
2023-01-19T04:47:16.756Z,5.5
2023-01-19T04:48:16.414Z,6
2023-01-19T04:49:16.451Z,5.800
2023-01-19T04:50:16.714Z,5.400
2023-01-19T04:51:16.402Z,6.5
2023-01-19T04:52:16.082Z,7.199
2023-01-19T04:53:16.164Z,5.599
2023-01-19T04:54:16.514Z,6
2023-01-19T04:55:16.797Z,5.800
2023-01-19T04:56:16.378Z,6
2023-01-19T04:57:16.575Z,5.5
2023-01-19T04:58:16.175Z,6.400
2023-01-19T04:59:16.492Z,5.599
2023-01-19T05:00:17.242Z,5.900
2023-01-19T05:02:16.820Z,6.699
2023-01-19T05:03:16.832Z,5.699
2023-01-19T05:04:16.347Z,6.699
2023-01-19T05:05:16.761Z,5.300
2023-01-19T05:06:16.411Z,5.099
2023-01-19T05:07:16.557Z,5.900
2023-01-19T05:08:16.509Z,4.900
2023-01-19T05:09:16.656Z,6.5
2023-01-19T05:10:16.659Z,5.900
2023-01-19T05:11:16.599Z,5.5
2023-01-19T05:12:16.496Z,6.800
2023-01-19T05:13:16.562Z,5.099
2023-01-19T05:14:16.400Z,7.099
2023-01-19T05:15:16.620Z,6.099
2023-01-19T05:16:15.528Z,5.199
2023-01-19T05:18:16.650Z,6
2023-01-19T05:19:16.303Z,5.599
2023-01-19T05:20:16.357Z,7.300
2023-01-19T05:21:16.455Z,6.099
2023-01-19T05:22:16.364Z,6
2023-01-19T05:23:16.350Z,7.199
2023-01-19T05:24:16.414Z,7.400
2023-01-19T05:25:16.400Z,6
2023-01-19T05:26:16.125Z,6.900
2023-01-19T05:27:16.196Z,5.699
2023-01-19T05:28:16.877Z,6.099
2023-01-19T05:29:16.659Z,7.5
2023-01-19T05:30:16.611Z,5.599
2023-01-19T05:31:18.593Z,5.800
2023-01-19T05:32:16.859Z,6.300
2023-01-19T05:33:16.919Z,6.800
2023-01-19T05:34:16.811Z,5.599
2023-01-19T05:35:20.191Z,7
2023-01-19T05:36:16.640Z,6.300
2023-01-19T05:37:16.146Z,6.599
2023-01-19T05:38:20.856Z,5.5
2023-01-19T05:39:16.223Z,6.300
2023-01-19T05:40:16.400Z,6.800
2023-01-19T05:41:16.527Z,8.100
2023-01-19T05:42:16.392Z,6.400
2023-01-19T05:43:15.679Z,6
2023-01-19T05:46:16.795Z,6.599
2023-01-19T05:47:16.628Z,6.400
2023-01-19T05:48:16.665Z,7.400
2023-01-19T05:49:16.301Z,6.300
2023-01-19T05:51:16.655Z,6.400
2023-01-19T05:52:16.461Z,6.900
2023-01-19T05:53:16.227Z,8.300
2023-01-19T05:54:16.050Z,5.599
2023-01-19T05:55:16.843Z,5.900
2023-01-19T05:56:16.614Z,7.099
2023-01-19T05:57:16.342Z,6.400
2023-01-19T05:58:16.158Z,6.199
2023-01-19T05:59:16.367Z,7.900
2023-01-19T06:00:16.852Z,6.199
2023-01-19T06:01:21.301Z,5.900
2023-01-19T06:02:16.260Z,7.199
2023-01-19T06:03:16.623Z,6.699
2023-01-19T06:04:16.666Z,8.199
2023-01-19T06:05:16.775Z,6
2023-01-19T06:06:16.680Z,7.699
2023-01-19T06:07:16.596Z,6.400
2023-01-19T06:08:16.666Z,8.5
2023-01-19T06:09:16.563Z,7.699
2023-01-19T06:11:16.268Z,5.800
2023-01-19T06:12:16.734Z,7.099
2023-01-19T06:13:16.509Z,6.300
2023-01-19T06:14:16.367Z,6.099
2023-01-19T06:15:16.473Z,7.300
2023-01-19T06:16:16.406Z,6.300
2023-01-19T06:17:16.652Z,6.099
2023-01-19T06:18:16.724Z,6.699
2023-01-19T06:19:16.704Z,7.5
2023-01-19T06:20:16.919Z,9
2023-01-19T06:21:16.970Z,8.100
2023-01-19T06:23:16.664Z,7.800
2023-01-19T06:24:16.397Z,10.30
2023-01-19T06:25:16.755Z,6
2023-01-19T06:26:16.530Z,7.5
2023-01-19T06:27:16.662Z,6.5
2023-01-19T06:28:16.492Z,7.699
2023-01-19T06:29:16.621Z,7.300
2023-01-19T06:30:16.720Z,6.300
2023-01-19T06:31:31.025Z,7.900
2023-01-19T06:32:16.577Z,7.199
2023-01-19T06:33:16.442Z,7.900
2023-01-19T06:34:16.425Z,7.699
2023-01-19T06:35:16.437Z,10.19
2023-01-19T06:36:16.362Z,7.599
2023-01-19T06:37:16.345Z,7.900
2023-01-19T06:38:16.276Z,8.300
2023-01-19T06:39:16.962Z,8.699
2023-01-19T06:40:16.702Z,8
2023-01-19T06:41:16.841Z,7.800
2023-01-19T06:42:16.737Z,9.800
2023-01-19T06:43:16.921Z,10.69
2023-01-19T06:44:16.876Z,9.399
2023-01-19T06:45:16.827Z,8.100
2023-01-19T06:46:16.307Z,8
2023-01-19T06:47:16.648Z,7.400
2023-01-19T06:48:16.483Z,8.5
2023-01-19T06:49:16.384Z,7.699
2023-01-19T06:50:16.600Z,8.600
2023-01-19T06:51:16.612Z,8
2023-01-19T06:52:16.461Z,7.599
2023-01-19T06:53:16.125Z,9.199
2023-01-19T06:54:16.536Z,9
2023-01-19T06:55:16.466Z,7.699
2023-01-19T06:56:16.132Z,8.899
2023-01-19T06:57:16.406Z,7.800
2023-01-19T06:58:16.366Z,8
2023-01-19T06:59:16.524Z,8.100
2023-01-19T07:00:17.094Z,12.10
2023-01-19T07:01:16.340Z,8.100
2023-01-19T07:02:27.061Z,7.699
2023-01-19T07:04:16.345Z,8.199
2023-01-19T07:05:16.412Z,8.600
2023-01-19T07:06:16.304Z,7.400
2023-01-19T07:07:16.333Z,8.300
2023-01-19T07:08:16.270Z,8.600
2023-01-19T07:09:17.090Z,7
2023-01-19T07:10:16.254Z,8.699
2023-01-19T07:11:26.681Z,7.300
2023-01-19T07:12:16.581Z,7.699
2023-01-19T07:13:16.756Z,8.399
2023-01-19T07:14:16.763Z,9.699
2023-01-19T07:15:16.763Z,9.300
2023-01-19T07:16:16.434Z,7.900
2023-01-19T07:17:16.819Z,8.800
2023-01-19T07:18:16.527Z,8.699
2023-01-19T07:19:16.708Z,8.300
2023-01-19T07:20:16.708Z,8.5
2023-01-19T07:21:16.675Z,8.199
2023-01-19T07:22:16.366Z,9.100
2023-01-19T07:23:16.306Z,8.399
2023-01-19T07:24:15.987Z,9.5
2023-01-19T07:25:16.921Z,8.800
2023-01-19T07:26:16.510Z,9.800
2023-01-19T07:27:16.335Z,9.699
2023-01-19T07:28:16.499Z,10.39
2023-01-19T07:29:16.407Z,9.5
2023-01-19T07:30:16.714Z,10.60
2023-01-19T07:31:16.486Z,10
2023-01-19T07:32:16.813Z,8.800
2023-01-19T07:33:16.818Z,10.89
2023-01-19T07:34:16.400Z,9.5
2023-01-19T07:35:16.487Z,8.899
2023-01-19T07:36:16.030Z,8.100
2023-01-19T07:37:16.880Z,10.10
2023-01-19T07:38:16.913Z,12.30
2023-01-19T07:39:16.777Z,11.89
2023-01-19T07:40:16.701Z,9.399
2023-01-19T07:41:16.629Z,8.899
2023-01-19T07:43:16.300Z,10.69
2023-01-19T07:44:16.244Z,8.600
2023-01-19T07:45:16.318Z,11.39
2023-01-19T07:46:16.258Z,9.300
2023-01-19T07:47:16.386Z,10
2023-01-19T07:48:16.433Z,8.699
2023-01-19T07:49:16.539Z,9.699
2023-01-19T07:50:16.467Z,9.100
2023-01-19T07:51:16.362Z,9
2023-01-19T07:52:16.491Z,10.30
2023-01-19T07:53:16.381Z,10.60
2023-01-19T07:54:16.351Z,10.10
2023-01-19T07:55:16.503Z,9.699
2023-01-19T07:56:16.219Z,9.300
2023-01-19T07:57:16.330Z,10.30
2023-01-19T07:58:16.426Z,11
2023-01-19T07:59:16.387Z,9.399
2023-01-19T08:00:17.000Z,10.80
2023-01-19T08:01:16.493Z,8.699
2023-01-19T08:02:17.400Z,11.39
2023-01-19T08:03:16.537Z,12.10
2023-01-19T08:04:16.148Z,10.80
2023-01-19T08:05:16.456Z,11.5
2023-01-19T08:06:16.182Z,9.699
2023-01-19T08:07:16.441Z,10.39
2023-01-19T08:08:16.021Z,12.19
2023-01-19T08:09:16.563Z,10.39
2023-01-19T08:10:16.273Z,10.80
2023-01-19T08:11:16.318Z,12.10
2023-01-19T08:12:16.146Z,10.19
2023-01-19T08:13:16.442Z,11.60
2023-01-19T08:14:16.328Z,9.399
2023-01-19T08:15:16.236Z,11.39
2023-01-19T08:16:16.451Z,11.69
2023-01-19T08:17:16.410Z,10.30
2023-01-19T08:18:16.295Z,10.80
2023-01-19T08:19:16.428Z,11
2023-01-19T08:20:16.168Z,9.5
2023-01-19T08:21:15.978Z,10.10
2023-01-19T08:23:16.460Z,9.300
2023-01-19T08:24:16.552Z,10.19
2023-01-19T08:25:16.835Z,12.69
2023-01-19T08:26:16.676Z,10.10
2023-01-19T08:27:16.762Z,11.39
2023-01-19T08:28:16.555Z,9.899
2023-01-19T08:29:16.943Z,9.199
2023-01-19T08:30:22.036Z,9.699
2023-01-19T08:31:21.136Z,10.80
2023-01-19T08:32:16.893Z,10
2023-01-19T08:33:16.509Z,9.899
2023-01-19T08:34:16.677Z,10.80
2023-01-19T08:35:16.664Z,9.600
2023-01-19T08:36:16.458Z,11.69
2023-01-19T08:37:16.717Z,12.30
2023-01-19T08:38:16.680Z,11.60
2023-01-19T08:39:17.345Z,12.60
2023-01-19T08:40:16.714Z,10.89
2023-01-19T08:41:17.002Z,10.30
2023-01-19T08:42:16.911Z,8.5
2023-01-19T08:43:17.134Z,10.19
2023-01-19T08:44:16.304Z,10.60
2023-01-19T08:45:16.668Z,11
2023-01-19T08:46:16.754Z,9.5
2023-01-19T08:47:16.905Z,11.80
2023-01-19T08:48:16.381Z,10.19
2023-01-19T08:49:17.045Z,12.10
2023-01-19T08:50:17.270Z,9.5
2023-01-19T08:51:16.839Z,11.10
2023-01-19T08:52:16.871Z,9.199
2023-01-19T08:53:17.063Z,10.60
2023-01-19T08:54:18.366Z,9.199
2023-01-19T08:55:17.191Z,10.69
2023-01-19T08:56:16.819Z,9.800
2023-01-19T08:57:17.067Z,9
2023-01-19T08:58:16.433Z,11.89
2023-01-19T08:59:16.948Z,10
2023-01-19T09:00:16.830Z,9.899
2023-01-19T09:01:17.268Z,11.39
2023-01-19T09:02:16.955Z,10.89
2023-01-19T09:03:16.708Z,10.19
2023-01-19T09:04:16.830Z,11.19
2023-01-19T09:05:17.313Z,8
2023-01-19T09:06:17.126Z,10.5
2023-01-19T09:07:16.811Z,9.800
2023-01-19T09:08:17.344Z,10.60
2023-01-19T09:09:16.975Z,10.80
2023-01-19T09:10:17.315Z,10
2023-01-19T09:12:16.833Z,9.5
2023-01-19T09:13:16.783Z,11.10
2023-01-19T09:14:17.460Z,9.300
2023-01-19T09:15:17.083Z,8.199
2023-01-19T09:16:17.131Z,10.19
2023-01-19T09:17:16.830Z,9
2023-01-19T09:18:17.138Z,10.5
2023-01-19T09:19:17.391Z,9.5
2023-01-19T09:20:16.168Z,10.39
2023-01-19T09:21:16.733Z,10.19
2023-01-19T09:22:16.844Z,10.30
2023-01-19T09:23:17.035Z,10.39
2023-01-19T09:24:17.007Z,9.699
2023-01-19T09:25:16.756Z,10.19
2023-01-19T09:26:16.768Z,10.80
2023-01-19T09:27:17.231Z,11.10
2023-01-19T09:28:16.700Z,10
2023-01-19T09:29:16.812Z,9.600
2023-01-19T09:30:17.193Z,9.399
2023-01-19T09:31:16.949Z,10.89
2023-01-19T09:32:16.899Z,10
2023-01-19T09:33:16.991Z,11.69
2023-01-19T09:34:16.674Z,10.5
2023-01-19T09:35:16.742Z,10.80
2023-01-19T09:36:16.840Z,9.899
2023-01-19T09:37:17.306Z,9.5
2023-01-19T09:38:16.982Z,9.100
2023-01-19T09:39:17.426Z,10.39
2023-01-19T09:40:17.176Z,11.5
2023-01-19T09:41:18.928Z,10.30
2023-01-19T09:42:16.501Z,9.800
2023-01-19T09:43:16.899Z,11.5
2023-01-19T09:44:17.015Z,9.899
2023-01-19T09:45:17.515Z,8.600
2023-01-19T09:46:16.957Z,11.10
2023-01-19T09:47:17.259Z,10.30
2023-01-19T09:48:16.564Z,14.19
2023-01-19T09:49:16.856Z,10.5
2023-01-19T09:50:16.579Z,11.80
2023-01-19T09:53:17.270Z,10.30
2023-01-19T09:55:17.077Z,9.100
2023-01-19T09:56:16.743Z,10.30
2023-01-19T09:57:17.032Z,11
2023-01-19T09:58:16.812Z,11.5
2023-01-19T09:59:17.012Z,12.69
2023-01-19T10:00:17.133Z,11.30
2023-01-19T10:01:16.753Z,10.5
2023-01-19T10:02:17.218Z,11.5
2023-01-19T10:03:16.538Z,10.69
2023-01-19T10:04:17.059Z,11.69
2023-01-19T10:05:17.241Z,10
2023-01-19T10:06:16.915Z,11
2023-01-19T10:07:16.612Z,12.30
2023-01-19T10:08:16.648Z,10.89
2023-01-19T10:09:16.625Z,10.10
2023-01-19T10:10:16.580Z,12
2023-01-19T10:11:16.904Z,10.69
2023-01-19T10:12:19.098Z,10.80
2023-01-19T10:13:16.937Z,11.30
2023-01-19T10:14:16.883Z,11.39
2023-01-19T10:15:17.029Z,11.80
2023-01-19T10:16:16.721Z,11
2023-01-19T10:17:16.861Z,11.30
2023-01-19T10:18:17.050Z,9.899
2023-01-19T10:19:16.356Z,11.80
2023-01-19T10:20:16.963Z,10.80
2023-01-19T10:21:16.915Z,11.30
2023-01-19T10:22:16.491Z,11.80
2023-01-19T10:23:16.453Z,10.89
2023-01-19T10:24:16.468Z,10.5
2023-01-19T10:26:17.263Z,12.5
2023-01-19T10:27:16.407Z,11.39
2023-01-19T10:28:16.441Z,11.10
2023-01-19T10:29:16.618Z,12.5
2023-01-19T10:30:17.352Z,13.89
2023-01-19T10:31:17.018Z,14.39
2023-01-19T10:32:16.662Z,13.60
2023-01-19T10:34:19.806Z,11.10
2023-01-19T10:35:17.060Z,12.80
2023-01-19T10:36:16.688Z,12.5
2023-01-19T10:37:17.278Z,10.80
2023-01-19T10:38:16.512Z,11.69
2023-01-19T10:39:16.701Z,11.39
2023-01-19T10:40:17.183Z,13.30
2023-01-19T10:41:16.584Z,12.60
2023-01-19T10:42:16.735Z,13.89
2023-01-19T10:43:17.179Z,11.39
2023-01-19T10:44:16.688Z,10.80
2023-01-19T10:45:17.511Z,12.60
2023-01-19T10:46:16.806Z,13.19
2023-01-19T10:47:16.588Z,12.69
2023-01-19T10:48:16.531Z,13.10
2023-01-19T10:49:17.038Z,11.60
2023-01-19T10:50:17.220Z,11.10
2023-01-19T10:52:18.865Z,10.60
2023-01-19T10:53:16.741Z,11.60
2023-01-19T10:54:16.893Z,10.5
2023-01-19T10:55:17.306Z,11.5
2023-01-19T10:56:16.722Z,10.69
2023-01-19T10:57:21.608Z,10
2023-01-19T10:58:18.823Z,13.30
2023-01-19T10:59:22.037Z,10.30
2023-01-19T11:00:17.249Z,10.80
2023-01-19T11:01:24.983Z,11.30
2023-01-19T11:02:17.089Z,9.600
2023-01-19T11:03:17.007Z,12.30
2023-01-19T11:04:16.752Z,11.60
2023-01-19T11:05:17.260Z,11.89
2023-01-19T11:06:16.924Z,11.5
2023-01-19T11:07:17.069Z,9.800
2023-01-19T11:08:16.207Z,10.60
2023-01-19T11:09:31.327Z,10.30
2023-01-19T11:10:16.483Z,13
2023-01-19T11:11:16.632Z,11.30
2023-01-19T11:12:17.036Z,10.60
2023-01-19T11:13:31.131Z,10.69
2023-01-19T11:14:17.055Z,11.39
2023-01-19T11:15:16.498Z,9.699
2023-01-19T11:16:16.575Z,9.399
2023-01-19T11:17:16.891Z,12.19
2023-01-19T11:18:16.925Z,10.69
2023-01-19T11:19:16.715Z,11.60
2023-01-19T11:20:16.791Z,10.89
2023-01-19T11:21:17.300Z,11.5
2023-01-19T11:22:17.173Z,12.10
2023-01-19T11:23:16.500Z,12
2023-01-19T11:24:16.722Z,12.69
2023-01-19T11:25:17.233Z,9.199
2023-01-19T11:26:16.489Z,12.89
2023-01-19T11:27:16.739Z,12.39
2023-01-19T11:28:17.023Z,12
2023-01-19T11:29:16.798Z,10.39
2023-01-19T11:30:17.167Z,9.800
2023-01-19T11:31:16.842Z,10.10
2023-01-19T11:32:16.579Z,9
2023-01-19T11:33:17.225Z,9.600
2023-01-19T11:34:16.758Z,10.60
2023-01-19T11:35:17.289Z,10
2023-01-19T11:36:16.815Z,11.19
2023-01-19T11:37:16.677Z,11.80
2023-01-19T11:38:17.085Z,10.30
2023-01-19T11:39:16.883Z,10.10
2023-01-19T11:40:16.752Z,11.30
2023-01-19T11:41:16.706Z,9.300
2023-01-19T11:42:16.951Z,11
2023-01-19T11:43:17.195Z,9.600
2023-01-19T11:44:16.375Z,11
2023-01-19T11:45:16.951Z,9.600
2023-01-19T11:46:17.489Z,10
2023-01-19T11:47:17.033Z,9
2023-01-19T11:48:16.590Z,11.10
2023-01-19T11:49:17.134Z,10
2023-01-19T11:50:16.839Z,9.899
2023-01-19T11:52:17.182Z,9
2023-01-19T11:53:16.811Z,9.100
2023-01-19T11:54:17.224Z,8.600
2023-01-19T11:55:17.160Z,10.39
2023-01-19T11:56:16.980Z,11.5
2023-01-19T11:57:17.047Z,9.399
2023-01-19T11:58:17.111Z,11.5
2023-01-19T11:59:17.167Z,9.399
2023-01-19T12:00:17.395Z,10.30
2023-01-19T12:01:17.053Z,10.39
2023-01-19T12:02:16.448Z,9.199
2023-01-19T12:03:17.220Z,10.19
2023-01-19T12:04:16.807Z,11
2023-01-19T12:05:17.494Z,8.699
2023-01-19T12:06:16.829Z,7.900
2023-01-19T12:07:16.993Z,8.600
2023-01-19T12:08:16.444Z,8.800
2023-01-19T12:09:16.953Z,11.60
2023-01-19T12:10:17.398Z,9.199
2023-01-19T12:11:16.611Z,9.399
2023-01-19T12:12:17.168Z,7.699
2023-01-19T12:13:16.704Z,8.699
2023-01-19T12:14:16.814Z,7.699
2023-01-19T12:15:16.735Z,9.199
2023-01-19T12:16:16.914Z,9.399
2023-01-19T12:17:17.391Z,10
2023-01-19T12:18:16.669Z,9.199
2023-01-19T12:19:16.898Z,10.39
2023-01-19T12:20:17.348Z,9.199
2023-01-19T12:21:16.895Z,9.800
2023-01-19T12:22:17.096Z,8.199
2023-01-19T12:23:16.847Z,7.099
2023-01-19T12:24:17.206Z,9
2023-01-19T12:25:17.066Z,9.5
2023-01-19T12:26:16.682Z,8.800
2023-01-19T12:27:17.113Z,7.699
2023-01-19T12:28:16.354Z,8.5
2023-01-19T12:29:16.643Z,11
2023-01-19T12:30:16.759Z,9.899
2023-01-19T12:31:16.860Z,8.300
2023-01-19T12:32:16.679Z,10.5
2023-01-19T12:34:15.911Z,9.5
2023-01-19T12:35:16.928Z,10.30
2023-01-19T12:36:16.569Z,7.699
2023-01-19T12:37:17.127Z,9.800
2023-01-19T12:38:16.752Z,9.899
2023-01-19T12:39:17.101Z,11.30
2023-01-19T12:40:16.987Z,7.900
2023-01-19T12:41:16.775Z,8.199
2023-01-19T12:42:16.797Z,8.800
2023-01-19T12:44:16.740Z,9
2023-01-19T12:45:16.983Z,9.5
2023-01-19T12:46:16.055Z,7.699
2023-01-19T12:47:16.751Z,11.30
2023-01-19T12:48:16.868Z,9.100
2023-01-19T12:49:17.408Z,8.5
2023-01-19T12:50:16.941Z,8.699
2023-01-19T12:51:16.799Z,7.400
2023-01-19T12:52:16.956Z,8.600
2023-01-19T12:53:16.591Z,7.400
2023-01-19T12:54:16.379Z,8.699
2023-01-19T12:55:17.071Z,8.100
2023-01-19T12:56:16.522Z,7.900
2023-01-19T12:57:16.856Z,10.5
2023-01-19T12:58:16.768Z,8.199
2023-01-19T12:59:17.001Z,8
2023-01-19T13:00:18.939Z,9.699
2023-01-19T13:01:17.249Z,9.800
2023-01-19T13:02:16.844Z,8.199
2023-01-19T13:03:17.164Z,7.800
2023-01-19T13:04:16.593Z,8
2023-01-19T13:06:16.664Z,10.10
2023-01-19T13:07:16.862Z,7.800
2023-01-19T13:08:16.773Z,9.399
2023-01-19T13:09:17.126Z,8.399
2023-01-19T13:10:17.485Z,9.199
2023-01-19T13:11:16.932Z,8.899
2023-01-19T13:12:16.605Z,8.600
2023-01-19T13:14:16.810Z,9.199
2023-01-19T13:15:17.438Z,8.800
2023-01-19T13:16:16.593Z,8.100
2023-01-19T13:17:16.842Z,7.699
2023-01-19T13:18:17.265Z,9.600
2023-01-19T13:19:16.575Z,7.300
2023-01-19T13:20:17.155Z,9.100
2023-01-19T13:21:16.645Z,8.399
2023-01-19T13:22:17.213Z,9.899
2023-01-19T13:23:16.857Z,8.800
2023-01-19T13:24:17.012Z,9.5
2023-01-19T13:25:16.778Z,7.800
2023-01-19T13:26:24.381Z,7.400
2023-01-19T13:27:16.696Z,8.399
2023-01-19T13:28:16.694Z,6.800
2023-01-19T13:29:17.118Z,8.399
2023-01-19T13:30:16.797Z,8.699
2023-01-19T13:31:17.200Z,7.400
2023-01-19T13:32:17.288Z,7.800
2023-01-19T13:33:17.472Z,7.300
2023-01-19T13:34:16.614Z,6.900
2023-01-19T13:36:16.339Z,7.800
2023-01-19T13:37:16.383Z,7.599
2023-01-19T13:38:16.795Z,6.699
2023-01-19T13:39:18.578Z,8.300
2023-01-19T13:41:17.011Z,7.800
2023-01-19T13:42:16.678Z,8.899
2023-01-19T13:43:17.249Z,8.699
2023-01-19T13:44:16.784Z,8.100
2023-01-19T13:45:16.833Z,7.699